KLUL/LUL METAR and TAF weather

Enter ICAO airport designator
Station Type Date Time Source
KLUL METAR 2020/07/06 08:35 UTC NOAA

KLUL 060835Z AUTO 00000KT 7SM OVC004 23/22 A2988 RMK A02 T02270223


Station Type Date Time Source
KLUL Decoded METAR 2020/07/06 08:35 UTC NOAA

Station name not available
Jul 06, 2020 - 04:35 AM EDT / 2020.07.06 0835 UTC
Wind: Calm:0
Visibility: 7 mile(s):0
Sky conditions: overcast
Temperature: 72.9 F (22.7 C)
Dew Point: 72.1 F (22.3 C)
Relative Humidity: 97%
Pressure (altimeter): 29.88 in. Hg (1011 hPa)
ob: KLUL 060835Z AUTO 00000KT 7SM OVC004 23/22 A2988 RMK A02 T02270223
cycle: 8

Station Type Date Time Source
KLUL TAF UTC NOAA

Error!

Example: see airport list